Time;durP1;ratioP1;P1;durP2;ratioP2;P2;SDS_P1;SDS_P2;PMS_P1;PMS_P2;Temp;Humidity;BMP_temperature;BMP_pressure;BME280_temperature;BME280_humidity;BME280_pressure;Samples;Min_cycle;Max_cycle;Signal;HPM_P1;HPM_P2
2023/10/13 03:53:13;;;;;;;25.15;12.30;;;;;;;14.61;100.00;100580.16;6345512;27;20114;31
2023/10/13 03:56:25;;;;;;;22.40;11.48;;;;;;;14.62;100.00;100565.56;5359398;33;34075;-84
2023/10/13 03:59:35;;;;;;;24.77;11.88;;;;;;;14.59;100.00;100554.31;5350294;33;34509;-84
2023/10/13 04:02:45;;;;;;;22.05;12.80;;;;;;;14.63;100.00;100545.59;5348637;33;34333;-84
2023/10/13 04:06:06;;;;;;;23.67;12.63;;;;;;;14.64;100.00;100532.88;5337896;33;33872;-84
2023/10/13 04:19:19;;;;;;;21.30;11.63;;;;;;;14.71;100.00;100523.75;5350401;33;34077;-84
2023/10/13 04:22:54;;;;;;;18.50;11.27;;;;;;;14.71;100.00;100533.72;5349335;33;34299;-83
2023/10/13 04:28:53;;;;;;;19.87;11.35;;;;;;;14.82;100.00;100549.41;5348159;33;33855;-84
2023/10/13 04:32:00;;;;;;;19.62;11.88;;;;;;;14.91;100.00;100553.62;5348497;33;33693;-84
2023/10/13 04:35:18;;;;;;;23.58;13.38;;;;;;;14.93;100.00;100554.28;5348455;33;35481;-84
2023/10/13 04:38:32;;;;;;;26.40;12.00;;;;;;;14.91;100.00;100550.91;5347771;33;34371;-84
2023/10/13 04:45:16;;;;;;;23.50;12.57;;;;;;;14.90;100.00;100545.72;5369094;33;33814;-84
2023/10/13 04:58:00;;;;;;;20.50;11.85;;;;;;;14.88;100.00;100540.47;5366215;33;33529;-84
2023/10/13 05:48:34;;;;;;;19.70;12.00;;;;;;;15.53;100.00;100630.44;5366791;33;33835;-84
2023/10/13 06:31:45;;;;;;;25.08;12.85;;;;;;;16.13;100.00;100678.63;5369196;33;34469;-83
2023/10/13 06:34:50;;;;;;;24.48;11.80;;;;;;;16.20;100.00;100677.59;5368790;33;34329;-83
2023/10/13 06:37:57;;;;;;;24.37;13.75;;;;;;;16.19;100.00;100694.09;5368080;33;34225;-83
2023/10/13 06:41:07;;;;;;;24.10;13.82;;;;;;;16.20;100.00;100688.44;5352337;33;33977;-83
2023/10/13 06:44:15;;;;;;;24.42;13.38;;;;;;;16.17;100.00;100686.16;5377729;33;34054;-84
2023/10/13 06:47:20;;;;;;;24.00;12.68;;;;;;;16.10;100.00;100696.19;5364308;33;33849;-83
2023/10/13 06:50:24;;;;;;;28.67;13.30;;;;;;;16.09;100.00;100703.50;5365052;33;33828;-83
2023/10/13 06:53:29;;;;;;;22.02;13.50;;;;;;;16.12;100.00;100704.97;5349850;33;34822;-84
2023/10/13 06:56:39;;;;;;;21.80;12.95;;;;;;;16.16;100.00;100717.09;5377023;33;33535;-83
2023/10/13 06:59:42;;;;;;;23.00;12.80;;;;;;;16.12;100.00;100713.12;5365923;33;34435;-88
2023/10/13 07:02:52;;;;;;;27.05;14.27;;;;;;;16.09;100.00;100714.38;5383658;33;33838;-88
2023/10/13 07:05:58;;;;;;;24.63;14.13;;;;;;;16.08;100.00;100726.25;5365731;33;33715;-83
2023/10/13 07:09:04;;;;;;;24.33;13.43;;;;;;;16.18;100.00;100730.47;5364100;33;33482;-83
2023/10/13 07:12:16;;;;;;;22.95;12.80;;;;;;;16.21;100.00;100733.59;5365057;33;33792;-83
2023/10/13 07:15:19;;;;;;;31.45;15.10;;;;;;;16.23;100.00;100708.94;5368896;33;33604;-83
2023/10/13 07:18:23;;;;;;;24.00;13.02;;;;;;;16.22;100.00;100705.37;5351948;33;33921;-83
2023/10/13 07:21:32;;;;;;;27.87;14.60;;;;;;;16.19;100.00;100719.38;5383458;33;34709;-83
2023/10/13 07:24:39;;;;;;;24.95;14.65;;;;;;;16.21;100.00;100728.19;5366650;33;34348;-84
2023/10/13 07:27:43;;;;;;;23.55;15.20;;;;;;;16.15;100.00;100728.16;5352904;33;34710;-83
2023/10/13 07:34:12;;;;;;;20.80;13.32;;;;;;;16.27;100.00;100710.22;5368167;33;34565;-85
2023/10/13 07:37:16;;;;;;;22.80;13.88;;;;;;;16.31;100.00;100714.19;5368645;33;33644;-85
2023/10/13 07:43:28;;;;;;;28.80;13.07;;;;;;;16.61;100.00;100720.03;5385513;33;34595;-86
2023/10/13 07:46:35;;;;;;;26.58;15.27;;;;;;;16.74;100.00;100724.66;5360600;33;33999;-86
2023/10/13 07:49:39;;;;;;;24.73;13.35;;;;;;;16.92;100.00;100721.31;5373724;33;34001;-85
2023/10/13 07:53:00;;;;;;;28.42;14.93;;;;;;;16.95;100.00;100727.16;5384775;33;34051;-86
2023/10/13 07:56:05;;;;;;;27.40;15.75;;;;;;;17.04;100.00;100721.50;5370298;33;33557;-86
2023/10/13 07:59:09;;;;;;;23.85;14.65;;;;;;;17.02;100.00;100729.03;5381952;33;34866;-85
2023/10/13 08:02:15;;;;;;;29.42;14.87;;;;;;;17.02;100.00;100720.88;5367262;33;33659;-85
2023/10/13 08:05:39;;;;;;;26.62;14.20;;;;;;;17.09;100.00;100722.56;5349020;33;33577;-85
2023/10/13 08:08:43;;;;;;;22.55;14.40;;;;;;;17.21;100.00;100725.47;5379750;33;34601;-83
2023/10/13 08:11:46;;;;;;;24.42;12.93;;;;;;;17.29;100.00;100721.69;5380943;33;33837;-85
2023/10/13 08:14:49;;;;;;;19.77;12.32;;;;;;;17.32;100.00;100716.62;5380112;33;33510;-85
2023/10/13 08:17:53;;;;;;;23.48;13.27;;;;;;;17.39;100.00;100712.00;5367451;33;34322;-83
2023/10/13 08:21:02;;;;;;;21.87;12.02;;;;;;;17.45;100.00;100708.41;5354790;33;34340;-84
2023/10/13 08:24:07;;;;;;;25.58;14.80;;;;;;;17.59;100.00;100711.09;5381293;33;34009;-83
2023/10/13 08:30:42;;;;;;;31.20;13.95;;;;;;;17.75;100.00;100715.22;5380028;33;33439;-85
2023/10/13 08:33:46;;;;;;;26.83;14.68;;;;;;;17.97;100.00;100716.59;5367768;33;34453;-84
2023/10/13 08:36:49;;;;;;;27.73;15.63;;;;;;;18.13;100.00;100724.28;5367446;33;33526;-84
2023/10/13 08:43:42;;;;;;;21.62;13.13;;;;;;;17.80;100.00;100723.59;5380816;33;34555;-84
2023/10/13 08:47:03;;;;;;;26.62;14.20;;;;;;;18.25;100.00;100727.12;5379624;33;32116;-84
2023/10/13 08:50:31;;;;;;;23.80;14.13;;;;;;;18.52;100.00;100724.22;5377361;33;34001;-84
2023/10/13 08:53:33;;;;;;;25.70;14.77;;;;;;;18.49;100.00;100735.56;5368302;33;33722;-85
2023/10/13 08:56:46;;;;;;;21.73;13.48;;;;;;;18.42;100.00;100737.47;5362820;33;33787;-84
2023/10/13 08:59:53;;;;;;;18.92;12.27;;;;;;;18.58;100.00;100739.69;5356324;33;34292;-85
2023/10/13 09:02:59;;;;;;;29.67;13.18;;;;;;;18.61;100.00;100739.22;5366654;33;34860;-84
2023/10/13 09:06:03;;;;;;;27.17;13.82;;;;;;;18.79;100.00;100733.84;5370498;33;33974;-84
2023/10/13 09:09:10;;;;;;;24.42;13.98;;;;;;;18.89;100.00;100727.06;5401530;33;33932;-84
2023/10/13 09:19:04;;;;;;;22.00;13.02;;;;;;;19.35;100.00;100725.75;5369023;33;33940;-84
2023/10/13 09:22:07;;;;;;;24.42;14.25;;;;;;;19.83;100.00;100727.69;5361784;33;34523;-84
2023/10/13 09:25:13;;;;;;;25.73;12.77;;;;;;;20.15;100.00;100722.84;5362453;33;34483;-84
2023/10/13 09:28:21;;;;;;;23.35;12.90;;;;;;;20.38;100.00;100719.34;5356474;33;34594;-84
2023/10/13 09:31:27;;;;;;;21.35;13.00;;;;;;;20.61;100.00;100718.59;5365836;33;33641;-84
2023/10/13 09:34:40;;;;;;;26.08;13.95;;;;;;;20.98;100.00;100719.22;5373164;33;34732;-84
2023/10/13 09:37:46;;;;;;;24.63;13.57;;;;;;;21.01;100.00;100715.19;5367460;33;34635;-84
2023/10/13 09:40:50;;;;;;;21.83;12.43;;;;;;;21.03;100.00;100722.09;5379411;33;34190;-84
2023/10/13 09:43:57;;;;;;;28.90;12.23;;;;;;;21.18;100.00;100718.03;5367049;33;33737;-84
2023/10/13 09:47:09;;;;;;;24.90;13.18;;;;;;;21.34;100.00;100725.50;5355481;33;33907;-88
2023/10/13 09:50:23;;;;;;;25.95;12.88;;;;;;;21.40;100.00;100724.56;5354399;33;33660;-85
2023/10/13 09:53:29;;;;;;;20.83;12.35;;;;;;;21.29;100.00;100715.28;5367963;33;34137;-84
2023/10/13 09:57:01;;;;;;;30.12;12.07;;;;;;;21.30;100.00;100716.09;5378607;33;33549;-84
2023/10/13 10:00:46;;;;;;;22.55;12.40;;;;;;;21.50;100.00;100713.00;5373965;33;33849;-84
2023/10/13 10:04:16;;;;;;;22.95;11.57;;;;;;;21.87;100.00;100712.63;5374512;33;33677;-84
2023/10/13 10:07:24;;;;;;;20.20;11.95;;;;;;;22.21;100.00;100710.84;5377983;33;34244;-84
2023/10/13 10:10:55;;;;;;;20.98;13.15;;;;;;;22.15;100.00;100707.13;5388865;33;33852;-84
2023/10/13 10:14:01;;;;;;;24.30;12.60;;;;;;;22.38;100.00;100703.47;5371119;33;34651;-88
2023/10/13 10:17:09;;;;;;;23.17;13.35;;;;;;;22.95;100.00;100698.88;5379171;33;34580;-85
2023/10/13 10:20:19;;;;;;;21.17;11.13;;;;;;;22.75;100.00;100700.19;5366122;33;34386;-83
2023/10/13 10:23:36;;;;;;;19.83;11.85;;;;;;;22.58;100.00;100683.78;5377266;33;34604;-83
2023/10/13 10:26:51;;;;;;;21.55;12.27;;;;;;;22.82;100.00;100686.31;5377675;33;34832;-82
2023/10/13 10:29:56;;;;;;;23.52;12.68;;;;;;;22.40;100.00;100682.06;5375240;33;34054;-83
2023/10/13 10:33:00;;;;;;;20.48;10.73;;;;;;;22.64;100.00;100679.19;5383999;33;34456;-83
2023/10/13 10:36:05;;;;;;;20.00;12.45;;;;;;;22.72;100.00;100669.69;5365535;33;34075;-83
2023/10/13 10:39:11;;;;;;;26.45;11.73;;;;;;;23.04;100.00;100668.00;5377423;33;34900;-83
2023/10/13 10:42:29;;;;;;;26.70;12.40;;;;;;;23.25;100.00;100663.63;5363401;33;34041;-83
2023/10/13 10:45:34;;;;;;;20.83;12.88;;;;;;;23.59;100.00;100657.97;5356080;33;33733;-83
2023/10/13 10:48:42;;;;;;;24.05;12.10;;;;;;;23.88;99.73;100666.84;5363126;33;34675;-82
2023/10/13 10:51:45;;;;;;;24.73;12.23;;;;;;;23.92;98.54;100648.72;5365800;33;33898;-83
2023/10/13 10:54:59;;;;;;;17.45;10.50;;;;;;;24.04;98.14;100643.06;5363812;33;34020;-83
2023/10/13 10:58:06;;;;;;;20.35;10.65;;;;;;;24.46;93.59;100639.63;5377692;33;33881;-83
2023/10/13 11:01:20;;;;;;;19.33;11.55;;;;;;;24.43;93.30;100643.72;5377899;33;34682;-83
2023/10/13 11:04:24;;;;;;;19.08;11.45;;;;;;;24.26;94.39;100650.44;5375303;33;33465;-83
2023/10/13 11:07:29;;;;;;;19.27;10.95;;;;;;;24.55;93.21;100649.03;5389628;33;34946;-84
2023/10/13 11:10:36;;;;;;;21.02;10.85;;;;;;;24.72;91.92;100640.63;5369341;33;34288;-81
2023/10/13 11:13:54;;;;;;;23.23;11.05;;;;;;;25.05;90.00;100638.59;5379028;33;34055;-87
2023/10/13 11:17:05;;;;;;;19.37;10.48;;;;;;;25.29;88.27;100630.75;5360813;33;34081;-83
2023/10/13 11:20:16;;;;;;;28.83;11.07;;;;;;;25.18;90.40;100631.78;5375794;33;33828;-83
2023/10/13 11:23:23;;;;;;;19.80;9.60;;;;;;;25.15;89.31;100622.12;5378528;33;34722;-83
2023/10/13 11:26:52;;;;;;;16.58;9.02;;;;;;;25.24;88.96;100620.53;5378854;33;33645;-83
2023/10/13 11:30:05;;;;;;;20.25;9.65;;;;;;;25.42;89.32;100616.47;5376912;33;33743;-83
2023/10/13 11:33:09;;;;;;;20.90;10.45;;;;;;;25.48;87.80;100617.31;5355470;33;33881;-83
2023/10/13 11:36:17;;;;;;;20.08;10.38;;;;;;;25.36;89.23;100613.94;5364787;33;33071;-83
2023/10/13 11:39:30;;;;;;;19.85;9.73;;;;;;;25.76;86.78;100625.09;5366551;33;34860;-84
2023/10/13 11:42:36;;;;;;;20.88;10.27;;;;;;;25.73;87.98;100613.78;5369822;33;34966;-83
2023/10/13 11:45:52;;;;;;;18.95;9.98;;;;;;;25.99;86.72;100612.72;5364494;33;34355;-83
2023/10/13 11:48:55;;;;;;;18.98;9.10;;;;;;;26.00;86.78;100608.88;5378712;33;33234;-83
2023/10/13 11:52:09;;;;;;;17.45;9.60;;;;;;;25.88;88.33;100605.53;5377948;33;33617;-84
2023/10/13 11:55:13;;;;;;;16.90;9.55;;;;;;;25.99;88.29;100609.16;5362791;33;34821;-83
2023/10/13 11:58:17;;;;;;;16.52;9.25;;;;;;;26.03;87.67;100599.22;5356942;33;34551;-83
2023/10/13 12:01:20;;;;;;;16.98;9.32;;;;;;;26.16;87.67;100606.13;5357276;33;34330;-83
2023/10/13 12:04:32;;;;;;;19.58;9.88;;;;;;;26.29;87.09;100604.72;5375486;33;32366;-84
2023/10/13 12:07:51;;;;;;;21.10;8.73;;;;;;;26.31;86.53;100597.00;5365039;33;34053;-85
2023/10/13 12:11:30;;;;;;;17.05;9.18;;;;;;;26.27;88.06;100584.84;5364798;33;33809;-81
2023/10/13 12:14:52;;;;;;;17.20;8.88;;;;;;;26.12;85.72;100588.44;5357822;33;34068;-81
2023/10/13 12:17:57;;;;;;;12.35;8.13;;;;;;;25.88;87.73;100594.50;5359283;33;34331;-84
2023/10/13 12:21:08;;;;;;;19.10;9.60;;;;;;;25.99;87.04;100593.41;5382231;33;33912;-82
2023/10/13 12:24:22;;;;;;;14.65;8.70;;;;;;;25.64;88.56;100587.84;5380787;33;34073;-81
2023/10/13 12:27:34;;;;;;;13.60;8.23;;;;;;;25.75;88.45;100578.47;5357520;33;33628;-81
2023/10/13 12:30:50;;;;;;;15.52;8.38;;;;;;;25.70;88.46;100578.47;5364896;33;33913;-82
2023/10/13 12:33:53;;;;;;;17.83;8.50;;;;;;;25.64;89.31;100574.06;5378944;33;34587;-82
2023/10/13 12:37:05;;;;;;;18.17;8.52;;;;;;;25.72;88.73;100571.59;5373357;33;34627;-82
2023/10/13 12:50:34;;;;;;;15.95;7.68;;;;;;;26.65;85.15;100575.19;5368789;33;33470;-82
2023/10/13 12:53:37;;;;;;;13.55;7.22;;;;;;;27.36;80.29;100560.25;5379238;33;33942;-82
2023/10/13 12:56:43;;;;;;;13.45;6.78;;;;;;;27.83;78.11;100553.31;5384309;33;33625;-82
2023/10/13 12:59:46;;;;;;;16.37;7.25;;;;;;;27.66;76.86;100553.69;5384408;33;33873;-83
2023/10/13 13:02:52;;;;;;;17.10;7.18;;;;;;;27.01;78.98;100544.66;5383983;33;33988;-82
2023/10/13 13:05:57;;;;;;;13.60;6.62;;;;;;;27.02;78.96;100540.78;5384596;33;33756;-82
2023/10/13 13:09:00;;;;;;;16.45;6.45;;;;;;;26.87;78.86;100539.72;5378068;33;33757;-82
2023/10/13 13:12:05;;;;;;;14.70;7.15;;;;;;;26.91;77.24;100535.31;5386887;33;34004;-82
2023/10/13 13:15:09;;;;;;;15.00;6.20;;;;;;;27.19;74.03;100532.97;5372732;33;33542;-82
2023/10/13 13:18:12;;;;;;;17.65;6.82;;;;;;;27.27;73.32;100532.37;5384178;33;33908;-82
2023/10/13 13:21:21;;;;;;;13.15;5.95;;;;;;;27.47;72.56;100523.12;5384280;33;33796;-82
2023/10/13 13:24:24;;;;;;;10.32;6.53;;;;;;;27.23;74.29;100530.47;5373106;33;35384;-82
2023/10/13 13:27:27;;;;;;;13.77;5.68;;;;;;;27.16;74.06;100525.25;5396670;33;34210;-82
2023/10/13 13:30:34;;;;;;;16.62;6.55;;;;;;;27.19;71.44;100519.16;5354147;33;33822;-82
2023/10/13 13:33:38;;;;;;;13.62;5.87;;;;;;;26.91;73.79;100524.25;5348472;33;33492;-82
2023/10/13 13:36:44;;;;;;;14.45;6.15;;;;;;;26.76;73.76;100524.28;5348102;33;33983;-82
2023/10/13 13:39:47;;;;;;;10.82;4.97;;;;;;;26.84;72.00;100514.59;5336530;33;35505;-82
2023/10/13 13:42:50;;;;;;;12.90;5.20;;;;;;;26.82;70.23;100512.16;5347620;33;34548;-82
2023/10/13 13:45:57;;;;;;;11.02;4.75;;;;;;;26.60;69.84;100517.19;5365505;33;33796;-82
2023/10/13 13:49:06;;;;;;;11.27;4.95;;;;;;;26.59;70.55;100507.22;5364073;33;34263;-82
2023/10/13 13:52:09;;;;;;;11.52;4.68;;;;;;;26.51;69.11;100514.19;5373211;33;34019;-86
2023/10/13 13:55:17;;;;;;;8.60;4.78;;;;;;;26.44;66.98;100511.69;5364034;33;33384;-86
2023/10/13 13:58:20;;;;;;;13.85;4.87;;;;;;;26.31;68.78;100514.19;5354611;33;34786;-83
2023/10/13 14:01:25;;;;;;;9.98;4.62;;;;;;;26.14;70.34;100515.31;5365415;33;33851;-83
2023/10/13 14:04:31;;;;;;;12.37;4.93;;;;;;;26.05;70.22;100505.13;5366093;33;33764;-82
2023/10/13 14:07:35;;;;;;;7.43;4.47;;;;;;;25.93;68.86;100509.00;5366326;33;33932;-82
2023/10/13 14:11:13;;;;;;;10.75;5.28;;;;;;;25.80;69.79;100498.50;5379237;33;33821;-82
2023/10/13 14:17:35;;;;;;;11.30;4.82;;;;;;;25.57;68.16;100499.88;5367020;33;33947;-82
2023/10/13 14:20:39;;;;;;;8.65;4.12;;;;;;;25.38;70.16;100496.00;5378777;33;34202;-82
2023/10/13 14:23:48;;;;;;;7.87;4.62;;;;;;;25.22;70.28;100487.72;5366735;33;34461;-82
2023/10/13 14:26:51;;;;;;;10.65;4.43;;;;;;;25.26;66.65;100488.81;5381840;33;33936;-82
2023/10/13 14:29:56;;;;;;;9.05;4.22;;;;;;;25.22;66.42;100489.62;5371810;33;33484;-82
2023/10/13 14:32:59;;;;;;;11.70;4.75;;;;;;;25.18;67.24;100480.25;5369184;33;34637;-82
2023/10/13 14:36:04;;;;;;;9.80;4.30;;;;;;;25.18;65.47;100471.97;5363449;33;34808;-82
2023/10/13 14:39:10;;;;;;;8.65;4.60;;;;;;;25.00;65.87;100470.53;5349693;33;33897;-82
2023/10/13 14:42:16;;;;;;;7.18;4.18;;;;;;;24.85;65.83;100474.91;5365123;33;33700;-82
2023/10/13 14:45:19;;;;;;;10.00;4.60;;;;;;;24.78;67.82;100479.84;5354851;33;33621;-82
2023/10/13 14:48:25;;;;;;;8.98;4.10;;;;;;;24.62;68.81;100467.91;5356856;33;33438;-82
2023/10/13 14:51:28;;;;;;;7.85;4.40;;;;;;;24.37;68.76;100467.78;5355366;33;34106;-82
2023/10/13 14:54:34;;;;;;;8.68;4.30;;;;;;;24.26;69.96;100468.84;5376559;33;35643;-82
2023/10/13 14:57:37;;;;;;;9.35;4.00;;;;;;;24.20;69.91;100466.03;5378222;33;34612;-82
2023/10/13 15:00:45;;;;;;;10.18;5.00;;;;;;;24.08;70.75;100476.44;5353476;33;33904;-82
2023/10/13 15:03:55;;;;;;;11.05;4.90;;;;;;;23.90;69.92;100466.69;5358376;33;33625;-82
2023/10/13 15:07:02;;;;;;;7.75;4.15;;;;;;;23.80;70.98;100482.25;5366848;33;33742;-86
2023/10/13 15:10:05;;;;;;;10.07;4.62;;;;;;;23.60;71.95;100472.72;5365119;33;33393;-82
2023/10/13 15:13:09;;;;;;;10.75;4.45;;;;;;;23.45;74.08;100473.41;5378262;33;34985;-82
2023/10/13 15:16:21;;;;;;;12.18;4.65;;;;;;;23.26;75.83;100469.41;5364919;33;34613;-83
2023/10/13 15:19:24;;;;;;;8.73;4.53;;;;;;;23.04;76.86;100469.44;5360549;33;151173;-82
2023/10/13 15:22:27;;;;;;;11.30;5.32;;;;;;;22.84;80.62;100470.87;5364567;33;33421;-83
2023/10/13 15:25:41;;;;;;;10.27;5.30;;;;;;;22.66;81.81;100473.91;5377331;33;33378;-82
2023/10/13 15:28:53;;;;;;;13.62;5.20;;;;;;;22.46;82.77;100470.91;5378835;33;33323;-82
2023/10/13 15:35:04;;;;;;;13.27;5.15;;;;;;;22.06;86.49;100469.25;5362915;33;34658;-82
2023/10/13 15:38:07;;;;;;;10.65;4.80;;;;;;;21.89;86.86;100466.53;5376278;33;33435;-82
2023/10/13 15:41:11;;;;;;;13.55;4.97;;;;;;;21.71;88.49;100462.12;5376120;33;33840;-82
2023/10/13 15:44:15;;;;;;;10.10;5.05;;;;;;;21.55;90.71;100473.91;5348433;33;33836;-82
2023/10/13 15:47:18;;;;;;;11.75;5.10;;;;;;;21.39;92.31;100473.66;5376193;33;34574;-83
2023/10/13 15:50:24;;;;;;;14.38;5.28;;;;;;;21.21;93.83;100477.41;5366089;33;33569;-82
2023/10/13 15:53:27;;;;;;;12.32;5.00;;;;;;;21.02;95.57;100474.03;5378267;33;33771;-82
